Time;durP1;ratioP1;P1;durP2;ratioP2;P2;SDS_P1;SDS_P2;PMS_P1;PMS_P2;Temp;Humidity;BMP_temperature;BMP_pressure;BME280_temperature;BME280_humidity;BME280_pressure;Samples;Min_cycle;Max_cycle;Signal;HPM_P1;HPM_P2
2023/06/21 00:00:48;;;;;;;6.23;4.97;;;27.20;53.70;;;;;;5051604;28;20181;-68
2023/06/21 00:03:13;;;;;;;8.40;5.80;;;27.20;53.70;;;;;;5051599;28;20177;-67
2023/06/21 00:05:39;;;;;;;5.87;5.10;;;27.20;53.70;;;;;;5051477;28;20668;-68
2023/06/21 00:08:05;;;;;;;8.90;5.67;;;27.20;53.70;;;;;;5051585;28;20178;-67
2023/06/21 00:10:31;;;;;;;7.30;4.40;;;27.20;53.70;;;;;;5052011;28;20179;-67
2023/06/21 00:12:57;;;;;;;4.60;4.20;;;27.20;53.70;;;;;;5055786;28;20917;-67
2023/06/21 00:15:24;;;;;;;5.27;4.70;;;27.20;53.70;;;;;;5055336;28;20488;-67
2023/06/21 00:17:50;;;;;;;5.23;4.73;;;27.20;53.70;;;;;;5055670;28;20796;-67
2023/06/21 00:20:15;;;;;;;5.00;3.90;;;27.20;53.70;;;;;;5055340;28;20402;-67
2023/06/21 00:22:45;;;;;;;6.30;4.90;;;27.20;53.70;;;;;;5055293;28;20912;-67
2023/06/21 00:25:11;;;;;;;5.30;4.80;;;27.20;53.70;;;;;;5055248;28;20208;-67
2023/06/21 00:27:38;;;;;;;6.70;4.97;;;27.20;53.70;;;;;;5055241;28;20409;-67
2023/06/21 00:30:06;;;;;;;5.80;5.07;;;27.20;53.70;;;;;;5055237;28;20401;-67
2023/06/21 00:32:31;;;;;;;4.80;4.30;;;27.20;53.70;;;;;;5055133;28;20902;-67
2023/06/21 00:34:57;;;;;;;4.50;4.03;;;27.20;53.70;;;;;;5054940;28;20460;-68
2023/06/21 00:37:22;;;;;;;5.80;4.37;;;27.20;53.70;;;;;;5055292;28;20197;-67
2023/06/21 00:39:48;;;;;;;4.70;4.27;;;27.20;53.70;;;;;;5053705;28;20170;-67
2023/06/21 00:42:14;;;;;;;10.10;5.10;;;27.20;53.60;;;;;;5054970;28;20715;-67
2023/06/21 00:44:39;;;;;;;5.00;4.50;;;27.20;53.60;;;;;;5054856;28;20522;-67
2023/06/21 00:47:05;;;;;;;5.30;4.63;;;27.20;53.60;;;;;;5054844;28;20253;-67
2023/06/21 00:49:31;;;;;;;5.33;4.93;;;27.20;53.60;;;;;;5053332;28;20674;-67
2023/06/21 00:51:57;;;;;;;5.77;4.70;;;27.20;53.60;;;;;;5054834;28;20229;-68
2023/06/21 00:54:26;;;;;;;5.20;4.00;;;27.20;53.60;;;;;;5054637;28;20453;-67
2023/06/21 00:56:53;;;;;;;4.43;4.03;;;27.20;53.70;;;;;;5054640;28;20679;-67
2023/06/21 00:59:19;;;;;;;5.03;4.17;;;27.20;53.70;;;;;;5053296;28;20786;-67
2023/06/21 01:01:45;;;;;;;6.40;4.10;;;27.20;53.70;;;;;;5054859;28;20417;-67
2023/06/21 01:04:12;;;;;;;5.20;4.23;;;27.20;53.60;;;;;;5054488;28;20409;-67
2023/06/21 01:07:01;;;;;;;4.23;3.83;;;27.20;53.70;;;;;;5054402;28;20209;-67
2023/06/21 01:09:45;;;;;;;4.53;4.13;;;27.20;53.70;;;;;;5054417;28;20409;-67
2023/06/21 01:12:22;;;;;;;4.93;4.40;;;27.20;53.70;;;;;;5054393;28;20497;-68
2023/06/21 01:14:59;;;;;;;4.67;4.27;;;27.20;53.70;;;;;;5054409;28;20476;-68
2023/06/21 01:17:28;;;;;;;7.10;4.73;;;27.20;53.70;;;;;;5054325;28;20416;-68
2023/06/21 01:19:56;;;;;;;9.70;4.60;;;27.20;53.70;;;;;;5054189;28;20432;-67
2023/06/21 01:22:21;;;;;;;4.50;4.00;;;27.20;53.70;;;;;;5054151;28;20413;-67
2023/06/21 01:25:09;;;;;;;4.30;3.90;;;27.20;53.70;;;;;;5054061;28;20433;-67
2023/06/21 01:27:56;;;;;;;6.70;4.70;;;27.20;53.70;;;;;;5054072;28;20178;-67
2023/06/21 01:30:25;;;;;;;4.73;4.23;;;27.20;53.70;;;;;;5054075;28;20393;-67
2023/06/21 01:32:53;;;;;;;4.80;4.20;;;27.20;53.70;;;;;;5054026;28;20402;-67
2023/06/21 01:35:21;;;;;;;5.10;4.03;;;27.20;53.70;;;;;;5053761;28;20456;-67
2023/06/21 01:37:49;;;;;;;4.80;4.30;;;27.20;53.70;;;;;;5052577;28;20418;-67
2023/06/21 01:40:15;;;;;;;8.37;4.47;;;27.20;53.70;;;;;;5053798;28;20405;-67
2023/06/21 01:42:41;;;;;;;4.67;4.23;;;27.20;53.70;;;;;;5053568;28;20405;-67
2023/06/21 01:45:08;;;;;;;3.97;3.67;;;27.20;53.60;;;;;;5053672;28;20203;-67
2023/06/21 01:47:35;;;;;;;4.63;3.53;;;27.20;53.60;;;;;;5053692;28;20441;-67
2023/06/21 01:50:04;;;;;;;4.37;3.97;;;27.20;53.60;;;;;;5053592;28;20417;-67
2023/06/21 01:52:31;;;;;;;5.37;4.60;;;27.20;53.60;;;;;;5052315;28;20413;-67
2023/06/21 01:54:57;;;;;;;4.33;3.73;;;27.20;53.60;;;;;;5053379;28;20453;-67
2023/06/21 01:57:25;;;;;;;4.83;4.23;;;27.20;54.10;;;;;;5053503;28;20410;-67
2023/06/21 01:59:52;;;;;;;4.20;3.80;;;27.20;53.50;;;;;;5052349;28;20410;-68
2023/06/21 02:02:21;;;;;;;4.53;4.13;;;27.20;53.50;;;;;;5053344;28;20898;-67
2023/06/21 02:04:47;;;;;;;4.00;3.70;;;27.20;53.50;;;;;;5053298;28;20409;-67
2023/06/21 02:07:15;;;;;;;5.10;4.53;;;27.20;53.50;;;;;;5053311;28;20455;-68
2023/06/21 02:09:46;;;;;;;5.50;3.57;;;27.20;53.50;;;;;;5053279;28;20500;-67
2023/06/21 02:12:11;;;;;;;4.70;3.40;;;27.20;53.50;;;;;;5053241;28;20393;-67
2023/06/21 02:14:40;;;;;;;4.10;3.70;;;27.20;53.50;;;;;;5053017;28;20461;-67
2023/06/21 02:17:05;;;;;;;4.20;3.67;;;27.20;53.50;;;;;;5053139;28;20171;-68
2023/06/21 02:19:31;;;;;;;3.47;3.10;;;27.20;53.50;;;;;;5053330;28;20420;-67
2023/06/21 02:21:56;;;;;;;3.60;3.30;;;27.20;53.50;;;;;;5053055;28;20194;-68
2023/06/21 02:24:22;;;;;;;3.80;3.37;;;27.20;53.50;;;;;;5052989;28;20183;-67
2023/06/21 02:26:48;;;;;;;4.97;3.53;;;27.20;53.50;;;;;;5052869;28;20206;-67
2023/06/21 02:29:13;;;;;;;4.27;3.77;;;27.20;53.50;;;;;;5052988;28;20186;-68
2023/06/21 02:31:39;;;;;;;3.50;2.97;;;27.20;54.10;;;;;;5052762;28;20701;-68
2023/06/21 02:34:05;;;;;;;5.77;4.10;;;27.20;53.50;;;;;;5052251;28;20277;-67
2023/06/21 02:36:30;;;;;;;4.30;3.37;;;27.20;53.50;;;;;;5052727;28;20220;-67
2023/06/21 02:38:56;;;;;;;3.60;3.27;;;27.20;53.50;;;;;;5052920;28;20250;-67
2023/06/21 02:41:22;;;;;;;3.90;3.50;;;27.20;53.50;;;;;;5052839;28;20166;-67
2023/06/21 02:43:48;;;;;;;3.50;3.20;;;27.20;53.50;;;;;;5052647;28;20163;-67
2023/06/21 02:46:14;;;;;;;3.97;3.17;;;27.20;53.50;;;;;;5052573;28;20277;-67
2023/06/21 02:48:39;;;;;;;3.70;3.03;;;27.20;53.50;;;;;;5052837;28;20500;-67
2023/06/21 02:51:05;;;;;;;3.50;3.20;;;27.10;53.40;;;;;;5052439;28;20186;-67
2023/06/21 02:53:31;;;;;;;5.07;2.80;;;27.20;53.50;;;;;;5051212;28;20191;-67
2023/06/21 02:55:56;;;;;;;4.40;3.27;;;27.20;53.50;;;;;;5052249;28;20675;-67
2023/06/21 02:58:22;;;;;;;3.30;3.00;;;27.20;53.50;;;;;;5052659;28;20181;-67
2023/06/21 03:00:47;;;;;;;3.53;3.00;;;27.20;53.50;;;;;;5052594;28;20210;-68
2023/06/21 03:03:13;;;;;;;3.90;3.47;;;27.20;53.60;;;;;;5052337;28;20636;-68
2023/06/21 03:05:38;;;;;;;4.20;3.20;;;27.20;53.60;;;;;;5052197;28;20217;-67
2023/06/21 03:08:07;;;;;;;3.80;3.27;;;27.20;53.50;;;;;;5052270;28;20175;-67
2023/06/21 03:10:33;;;;;;;5.07;3.20;;;27.20;53.60;;;;;;5052477;28;20179;-67
2023/06/21 03:12:59;;;;;;;4.33;3.40;;;27.20;53.60;;;;;;5052155;28;20471;-67
2023/06/21 03:15:25;;;;;;;2.93;2.63;;;27.10;53.50;;;;;;5052291;28;20604;-67
2023/06/21 03:17:51;;;;;;;7.57;3.50;;;27.20;53.50;;;;;;5052080;28;20789;-67
2023/06/21 03:20:16;;;;;;;4.40;3.30;;;27.20;53.50;;;;;;5052112;28;20420;-67
2023/06/21 03:22:45;;;;;;;3.00;2.70;;;27.20;53.60;;;;;;5052025;28;20258;-67
2023/06/21 03:25:13;;;;;;;4.97;3.30;;;27.20;53.50;;;;;;5052169;28;20199;-66
2023/06/21 03:27:39;;;;;;;3.20;2.90;;;27.20;53.60;;;;;;5051946;28;20492;-67
2023/06/21 03:30:06;;;;;;;3.10;2.80;;;27.10;53.50;;;;;;5051982;28;20414;-67
2023/06/21 03:32:32;;;;;;;4.67;2.83;;;27.20;53.50;;;;;;5051926;28;20429;-67
2023/06/21 03:34:58;;;;;;;3.40;2.50;;;27.10;53.50;;;;;;5051764;28;20466;-67
2023/06/21 03:37:25;;;;;;;3.07;2.63;;;27.20;53.60;;;;;;5052126;28;20175;-67
2023/06/21 03:39:51;;;;;;;2.67;2.40;;;27.10;53.50;;;;;;5051771;28;20756;-67
2023/06/21 03:42:16;;;;;;;2.90;2.60;;;27.10;53.50;;;;;;5051837;28;20492;-67
2023/06/21 03:44:42;;;;;;;3.03;2.73;;;27.10;53.60;;;;;;5051704;28;20636;-68
2023/06/21 03:47:07;;;;;;;3.10;2.77;;;27.10;53.60;;;;;;5054980;28;20262;-68
2023/06/21 03:49:33;;;;;;;3.07;2.40;;;27.10;53.60;;;;;;5055682;28;20225;-68
2023/06/21 03:51:58;;;;;;;2.90;2.40;;;27.20;53.70;;;;;;5055962;28;20221;-67
2023/06/21 03:54:24;;;;;;;3.83;2.80;;;27.10;53.80;;;;;;5055721;28;20290;-67
2023/06/21 03:56:50;;;;;;;3.13;2.50;;;27.10;53.80;;;;;;5054432;28;20198;-67
2023/06/21 03:59:15;;;;;;;3.43;3.00;;;27.10;53.80;;;;;;5055722;28;20178;-67
2023/06/21 04:01:41;;;;;;;3.67;3.30;;;27.20;53.80;;;;;;5054424;28;20171;-67
2023/06/21 04:04:06;;;;;;;3.70;2.70;;;27.20;53.80;;;;;;5055663;28;20167;-66
2023/06/21 04:06:32;;;;;;;4.80;3.13;;;27.20;53.80;;;;;;5055815;28;20190;-67
2023/06/21 04:08:57;;;;;;;3.07;2.77;;;27.20;53.80;;;;;;5055579;28;20178;-67
2023/06/21 04:11:23;;;;;;;3.50;2.57;;;27.10;53.80;;;;;;5055509;28;20186;-67
2023/06/21 04:13:48;;;;;;;2.97;2.50;;;27.20;53.80;;;;;;5055476;28;20172;-67
2023/06/21 04:16:14;;;;;;;5.50;4.10;;;27.20;53.90;;;;;;5055333;28;20726;-68
2023/06/21 04:18:40;;;;;;;4.33;3.30;;;27.20;53.80;;;;;;5055209;28;20297;-67
2023/06/21 04:21:06;;;;;;;3.90;2.77;;;27.20;53.90;;;;;;5055338;28;20171;-67
2023/06/21 04:23:32;;;;;;;3.07;2.53;;;27.20;53.90;;;;;;5055393;28;20175;-67
2023/06/21 04:25:58;;;;;;;4.77;3.07;;;27.20;53.90;;;;;;5055196;28;20429;-67
2023/06/21 04:28:25;;;;;;;3.60;2.83;;;27.20;53.90;;;;;;5055222;28;20416;-67
2023/06/21 04:30:58;;;;;;;3.70;2.50;;;27.20;53.90;;;;;;5055200;28;20196;-67
2023/06/21 04:33:24;;;;;;;4.10;3.00;;;27.20;53.90;;;;;;5055436;28;20415;-67
2023/06/21 04:35:49;;;;;;;3.23;2.53;;;27.20;53.90;;;;;;5053660;28;20465;-67
2023/06/21 04:38:15;;;;;;;3.37;3.07;;;27.20;53.90;;;;;;5054756;28;20519;-67
2023/06/21 04:40:42;;;;;;;4.70;2.77;;;27.20;53.90;;;;;;5055027;28;20175;-67
2023/06/21 04:43:07;;;;;;;3.77;3.03;;;27.20;53.90;;;;;;5054972;28;20171;-67
2023/06/21 04:45:33;;;;;;;5.77;3.07;;;27.20;53.90;;;;;;5055066;28;20842;-67
2023/06/21 04:47:59;;;;;;;2.80;2.50;;;27.30;54.00;;;;;;5054858;28;20409;-67
2023/06/21 04:50:25;;;;;;;3.30;3.00;;;27.20;53.90;;;;;;5053391;28;20682;-67
2023/06/21 04:52:57;;;;;;;3.87;2.93;;;27.20;54.50;;;;;;5054813;28;20224;-67
2023/06/21 04:55:24;;;;;;;2.90;2.60;;;27.30;54.00;;;;;;5054649;28;20751;-67
2023/06/21 04:57:49;;;;;;;3.40;2.70;;;27.30;54.00;;;;;;5053288;28;20438;-67
2023/06/21 05:00:18;;;;;;;4.87;2.40;;;27.30;54.00;;;;;;5054612;28;20436;-68
2023/06/21 05:02:45;;;;;;;5.23;2.70;;;27.30;54.10;;;;;;5054600;28;20440;-67
2023/06/21 05:05:10;;;;;;;3.03;2.40;;;27.30;54.10;;;;;;5054490;28;20433;-66
2023/06/21 05:07:37;;;;;;;3.10;2.80;;;27.30;54.10;;;;;;5054512;28;20410;-67
2023/06/21 05:10:10;;;;;;;3.40;2.37;;;27.30;54.10;;;;;;5054459;28;20543;-68
2023/06/21 05:12:36;;;;;;;3.13;2.83;;;27.30;54.20;;;;;;5053525;28;20404;-67
2023/06/21 05:15:01;;;;;;;3.30;2.20;;;27.30;54.20;;;;;;5053138;28;20461;-68
2023/06/21 05:17:27;;;;;;;2.80;2.60;;;27.30;54.20;;;;;;5053210;28;20899;-66
2023/06/21 05:19:52;;;;;;;4.23;2.70;;;27.30;54.20;;;;;;5053199;28;20258;-67
2023/06/21 05:22:18;;;;;;;3.23;2.93;;;27.30;54.20;;;;;;5051857;28;20178;-67
2023/06/21 05:24:44;;;;;;;2.73;2.30;;;27.30;54.30;;;;;;5053070;28;20178;-68
2023/06/21 05:27:11;;;;;;;2.70;2.40;;;27.30;54.30;;;;;;5054045;28;20167;-68
2023/06/21 05:29:36;;;;;;;3.20;2.73;;;27.30;54.30;;;;;;5054006;28;20170;-69
2023/06/21 05:32:02;;;;;;;3.17;2.60;;;27.30;54.30;;;;;;5054040;28;20432;-68
2023/06/21 05:34:28;;;;;;;5.93;2.67;;;27.30;54.30;;;;;;5053881;28;20199;-67
2023/06/21 05:36:54;;;;;;;4.20;2.90;;;27.30;54.30;;;;;;5053918;28;20250;-68
2023/06/21 05:39:20;;;;;;;2.63;2.43;;;27.30;54.40;;;;;;5053812;28;20854;-68
2023/06/21 05:41:45;;;;;;;3.93;3.13;;;27.30;54.60;;;;;;5054050;28;20425;-68
2023/06/21 05:44:12;;;;;;;4.30;3.70;;;27.30;54.60;;;;;;5052427;28;20253;-68
2023/06/21 05:46:38;;;;;;;5.20;3.13;;;27.30;54.80;;;;;;5053663;28;20279;-68
2023/06/21 05:49:03;;;;;;;3.10;2.80;;;27.30;54.80;;;;;;5053867;28;20504;-67
2023/06/21 05:51:29;;;;;;;5.20;3.53;;;27.30;54.70;;;;;;5053488;28;20187;-68
2023/06/21 05:53:56;;;;;;;4.43;3.23;;;27.30;54.80;;;;;;5053605;28;20167;-67
2023/06/21 05:56:24;;;;;;;4.13;2.90;;;27.30;54.70;;;;;;5053664;28;20293;-68
2023/06/21 05:58:50;;;;;;;3.60;3.07;;;27.30;54.60;;;;;;5053525;28;20402;-67
2023/06/21 06:01:16;;;;;;;3.87;3.10;;;27.30;54.90;;;;;;5053476;28;20775;-67
2023/06/21 06:03:41;;;;;;;3.63;3.33;;;27.30;54.90;;;;;;5053680;28;20424;-68
2023/06/21 06:06:08;;;;;;;5.30;3.63;;;27.30;55.00;;;;;;5053354;28;20229;-68
2023/06/21 06:08:34;;;;;;;4.20;3.80;;;27.30;55.10;;;;;;5052522;28;20167;-68
2023/06/21 06:10:59;;;;;;;4.10;3.60;;;27.30;55.30;;;;;;5053369;28;20412;-68
2023/06/21 06:13:25;;;;;;;3.60;3.30;;;27.30;55.50;;;;;;5053256;28;20167;-68
2023/06/21 06:15:51;;;;;;;4.30;3.50;;;27.20;55.20;;;;;;5053152;28;20615;-69
2023/06/21 06:18:16;;;;;;;4.87;3.50;;;27.20;55.00;;;;;;5053308;28;20229;-67
2023/06/21 06:20:43;;;;;;;4.30;3.80;;;27.20;55.00;;;;;;5053077;28;20824;-68
2023/06/21 06:23:12;;;;;;;7.20;4.50;;;27.30;55.60;;;;;;5053077;28;20173;-68
2023/06/21 06:25:38;;;;;;;4.93;4.43;;;27.20;55.30;;;;;;5052925;28;20959;-67
2023/06/21 06:28:04;;;;;;;5.37;4.83;;;27.20;55.40;;;;;;5053189;28;20492;-67
2023/06/21 06:30:30;;;;;;;8.20;4.60;;;27.30;55.70;;;;;;5052882;28;20763;-68
2023/06/21 06:32:56;;;;;;;5.83;4.47;;;27.20;55.80;;;;;;5051553;28;20433;-67
2023/06/21 06:35:22;;;;;;;5.03;4.53;;;27.20;56.10;;;;;;5052945;28;20213;-68
2023/06/21 06:37:48;;;;;;;5.33;4.83;;;27.20;56.00;;;;;;5052763;28;20772;-67
2023/06/21 06:40:13;;;;;;;4.87;4.40;;;27.20;55.70;;;;;;5052778;28;20199;-66
2023/06/21 06:42:39;;;;;;;5.23;4.23;;;27.20;55.90;;;;;;5052960;28;20167;-68
2023/06/21 06:45:05;;;;;;;5.90;5.30;;;27.20;55.70;;;;;;5052566;28;20248;-68
2023/06/21 06:47:31;;;;;;;5.67;4.17;;;27.20;56.20;;;;;;5052592;28;20250;-68
2023/06/21 06:49:57;;;;;;;6.00;4.47;;;27.20;56.00;;;;;;5052347;28;20516;-67
2023/06/21 06:52:23;;;;;;;5.70;4.63;;;27.20;56.10;;;;;;5052570;28;20609;-67
2023/06/21 06:54:48;;;;;;;5.70;4.73;;;27.20;55.90;;;;;;5052290;28;20515;-67
2023/06/21 06:57:15;;;;;;;6.53;4.90;;;27.30;55.90;;;;;;5052461;28;20226;-67
2023/06/21 06:59:41;;;;;;;9.47;5.07;;;27.20;56.10;;;;;;5052346;28;20455;-67
2023/06/21 07:02:06;;;;;;;5.43;4.93;;;27.20;56.20;;;;;;5052356;28;20183;-67
2023/06/21 07:04:32;;;;;;;5.73;5.13;;;27.20;56.30;;;;;;5052300;28;20664;-68
2023/06/21 07:07:00;;;;;;;5.70;5.17;;;27.30;56.00;;;;;;5052546;28;20182;-67
2023/06/21 07:09:26;;;;;;;6.60;5.87;;;27.20;55.70;;;;;;5052185;28;20225;-68
2023/06/21 07:11:56;;;;;;;6.53;5.77;;;27.30;56.10;;;;;;5052474;28;20437;-67
2023/06/21 07:14:25;;;;;;;6.13;5.53;;;27.20;56.50;;;;;;5052362;28;20543;-68
2023/06/21 07:16:50;;;;;;;6.00;5.40;;;27.20;56.90;;;;;;5052017;28;20445;-68
2023/06/21 07:19:16;;;;;;;6.07;5.47;;;27.20;56.10;;;;;;5052004;28;20405;-68
2023/06/21 07:21:42;;;;;;;5.50;5.00;;;27.30;55.90;;;;;;5052087;28;20167;-68
2023/06/21 07:24:07;;;;;;;5.93;5.33;;;27.30;55.80;;;;;;5052086;28;20569;-68
2023/06/21 07:26:33;;;;;;;5.07;4.57;;;27.30;55.80;;;;;;5051852;28;20215;-67
2023/06/21 07:28:59;;;;;;;6.77;5.30;;;27.30;55.60;;;;;;5052205;28;20183;-68
2023/06/21 07:31:25;;;;;;;6.63;5.93;;;27.30;55.70;;;;;;5050655;28;20528;-68
2023/06/21 07:33:56;;;;;;;7.00;6.30;;;27.30;55.80;;;;;;5051850;28;20410;-68
2023/06/21 07:36:21;;;;;;;6.90;6.30;;;27.30;55.70;;;;;;5050463;28;20210;-68
2023/06/21 07:38:48;;;;;;;6.73;6.10;;;27.30;56.50;;;;;;5051924;28;20895;-68
2023/06/21 07:41:14;;;;;;;9.40;6.20;;;27.30;56.50;;;;;;5051893;28;20650;-68
2023/06/21 07:43:40;;;;;;;6.40;5.80;;;27.30;56.30;;;;;;5051792;28;20772;-68
2023/06/21 07:46:05;;;;;;;7.67;6.17;;;27.30;56.10;;;;;;5051739;28;20429;-68
2023/06/21 07:48:32;;;;;;;8.10;6.30;;;27.30;56.00;;;;;;5051793;28;20683;-68
2023/06/21 07:50:57;;;;;;;6.57;5.97;;;27.30;56.00;;;;;;5051659;28;20186;-68
2023/06/21 07:53:23;;;;;;;6.27;5.67;;;27.30;55.70;;;;;;5051711;28;20439;-69
2023/06/21 07:55:48;;;;;;;6.10;5.50;;;27.30;55.80;;;;;;5050344;28;20214;-68
2023/06/21 07:58:14;;;;;;;8.60;6.30;;;27.30;56.30;;;;;;5051664;28;20596;-68
2023/06/21 08:00:39;;;;;;;8.27;6.50;;;27.30;56.00;;;;;;5051627;28;20540;-69
2023/06/21 08:03:05;;;;;;;8.57;6.67;;;27.30;56.00;;;;;;5051675;28;20353;-67
2023/06/21 08:05:31;;;;;;;8.10;7.20;;;27.30;56.10;;;;;;5051841;28;20191;-68
2023/06/21 08:08:01;;;;;;;6.67;6.07;;;27.30;55.90;;;;;;5050643;28;20186;-67
2023/06/21 08:10:31;;;;;;;9.80;7.10;;;27.30;56.20;;;;;;5051848;28;20193;-67
2023/06/21 08:12:57;;;;;;;9.83;7.00;;;27.30;56.40;;;;;;5051494;28;20405;-68
2023/06/21 08:15:23;;;;;;;7.73;6.80;;;27.30;56.20;;;;;;5051440;28;20479;-68
2023/06/21 08:17:49;;;;;;;6.80;6.20;;;27.30;56.10;;;;;;5051785;28;20181;-67
2023/06/21 08:20:16;;;;;;;8.63;7.63;;;27.30;55.90;;;;;;5051512;28;20778;-67
2023/06/21 08:22:42;;;;;;;6.80;6.20;;;27.30;56.10;;;;;;5051492;28;20651;-68
2023/06/21 08:25:07;;;;;;;7.30;6.67;;;27.30;55.90;;;;;;5051467;28;20786;-68
2023/06/21 08:27:33;;;;;;;6.73;6.03;;;27.30;55.80;;;;;;5051413;28;20175;-68
2023/06/21 08:29:59;;;;;;;6.07;5.57;;;27.30;55.70;;;;;;5051409;28;20559;-68
2023/06/21 08:32:24;;;;;;;11.10;7.90;;;27.30;55.60;;;;;;5053186;28;20572;-68
2023/06/21 08:34:52;;;;;;;6.97;6.20;;;27.30;56.00;;;;;;5055295;28;20215;-68
2023/06/21 08:37:22;;;;;;;7.47;6.77;;;27.40;56.00;;;;;;5055068;28;20537;-68
2023/06/21 08:39:48;;;;;;;8.03;7.33;;;27.40;56.10;;;;;;5055025;28;20417;-68
2023/06/21 08:42:14;;;;;;;7.67;7.07;;;27.30;56.00;;;;;;5054944;28;20488;-68
2023/06/21 08:44:40;;;;;;;7.97;7.17;;;27.30;56.00;;;;;;5055131;28;20555;-68
2023/06/21 08:47:07;;;;;;;8.57;7.73;;;27.30;55.90;;;;;;5053883;28;20191;-67
2023/06/21 08:49:37;;;;;;;9.47;8.40;;;27.30;55.80;;;;;;5054778;28;20183;-68
2023/06/21 08:52:06;;;;;;;10.37;7.33;;;27.40;56.00;;;;;;5054863;28;20531;-68
2023/06/21 08:54:34;;;;;;;7.40;6.70;;;27.40;56.40;;;;;;5054610;28;20452;-68
2023/06/21 08:57:21;;;;;;;8.23;7.53;;;27.40;56.10;;;;;;5054731;28;20484;-68
2023/06/21 09:00:03;;;;;;;11.33;9.10;;;27.40;56.20;;;;;;5054750;28;20394;-68
2023/06/21 09:02:48;;;;;;;7.97;7.37;;;27.40;56.30;;;;;;5054676;28;20857;-68
2023/06/21 09:05:23;;;;;;;7.90;7.20;;;27.40;56.10;;;;;;5054508;28;20440;-68
2023/06/21 09:07:49;;;;;;;8.87;8.10;;;27.30;56.10;;;;;;5053242;28;20424;-69
2023/06/21 09:10:16;;;;;;;8.10;7.40;;;27.30;56.30;;;;;;5054401;28;20424;-68
2023/06/21 09:12:44;;;;;;;8.33;7.37;;;27.40;56.10;;;;;;5054384;28;20421;-68
2023/06/21 09:15:11;;;;;;;8.97;8.17;;;27.40;56.40;;;;;;5054139;28;20986;-69
2023/06/21 09:17:38;;;;;;;9.63;8.73;;;27.40;56.40;;;;;;5054261;28;20493;-68
2023/06/21 09:20:04;;;;;;;9.87;8.70;;;27.40;56.40;;;;;;5052983;28;20445;-68
2023/06/21 09:22:31;;;;;;;9.27;8.30;;;27.40;56.40;;;;;;5052887;28;21000;-69
2023/06/21 09:24:56;;;;;;;8.47;7.77;;;27.40;56.20;;;;;;5054356;28;20198;-68
2023/06/21 09:27:22;;;;;;;10.60;8.07;;;27.40;56.10;;;;;;5054350;28;20442;-68
2023/06/21 09:29:48;;;;;;;7.43;6.77;;;27.40;56.30;;;;;;5054240;28;20530;-68
2023/06/21 09:32:14;;;;;;;7.73;6.97;;;27.40;56.20;;;;;;5054256;28;20207;-68
2023/06/21 09:34:39;;;;;;;9.07;8.27;;;27.40;56.00;;;;;;5053993;28;20515;-68
2023/06/21 09:37:05;;;;;;;9.13;8.30;;;27.40;55.90;;;;;;5052763;28;20408;-67
2023/06/21 09:39:30;;;;;;;8.40;7.60;;;27.40;55.90;;;;;;5053915;28;20178;-68
2023/06/21 09:41:56;;;;;;;7.47;6.77;;;27.40;55.70;;;;;;5053951;28;20179;-67
2023/06/21 09:44:23;;;;;;;7.77;7.03;;;27.40;56.00;;;;;;5052593;28;20186;-68
2023/06/21 09:46:49;;;;;;;8.10;7.40;;;27.40;55.90;;;;;;5053742;28;20190;-68
2023/06/21 09:49:18;;;;;;;7.43;6.80;;;27.40;55.70;;;;;;5053747;28;20420;-68
2023/06/21 09:51:46;;;;;;;8.20;7.50;;;27.40;55.70;;;;;;5053649;28;20437;-68
2023/06/21 09:54:12;;;;;;;7.47;6.77;;;27.40;55.70;;;;;;5053572;28;20922;-68
2023/06/21 09:56:37;;;;;;;8.20;7.37;;;27.40;55.60;;;;;;5053818;28;20449;-68
2023/06/21 09:59:13;;;;;;;7.30;6.70;;;27.40;55.60;;;;;;5053595;28;20854;-68
2023/06/21 10:01:42;;;;;;;7.40;6.70;;;27.40;55.60;;;;;;5053308;28;20163;-68
2023/06/21 10:04:15;;;;;;;7.60;6.90;;;27.40;55.60;;;;;;5052134;28;20417;-67
2023/06/21 10:06:48;;;;;;;8.03;7.27;;;27.40;55.50;;;;;;5053352;28;20529;-67
2023/06/21 10:09:13;;;;;;;8.00;7.20;;;27.40;55.50;;;;;;5053361;28;20409;-67
2023/06/21 10:11:43;;;;;;;7.60;6.90;;;27.40;55.70;;;;;;5053346;28;20413;-68
2023/06/21 10:14:26;;;;;;;7.00;6.03;;;27.40;55.60;;;;;;5052275;28;20186;-68
2023/06/21 10:16:55;;;;;;;7.33;6.63;;;27.40;55.40;;;;;;5053157;28;20512;-69
2023/06/21 10:19:22;;;;;;;8.17;7.10;;;27.40;55.60;;;;;;5051849;28;20401;-68
2023/06/21 10:21:58;;;;;;;11.57;7.73;;;27.40;55.60;;;;;;5053458;28;20417;-68
2023/06/21 10:24:36;;;;;;;7.67;6.83;;;27.40;55.60;;;;;;5053424;28;20386;-68
2023/06/21 10:27:06;;;;;;;7.30;6.60;;;27.40;55.50;;;;;;5053187;28;20389;-68
2023/06/21 10:29:33;;;;;;;7.00;6.10;;;27.40;55.50;;;;;;5052955;28;20416;-68
2023/06/21 10:32:00;;;;;;;7.33;6.63;;;27.40;55.60;;;;;;5053004;28;20398;-68
2023/06/21 10:34:29;;;;;;;6.67;6.07;;;27.40;55.50;;;;;;5052837;28;20394;-68
2023/06/21 10:37:05;;;;;;;9.23;7.80;;;27.40;55.40;;;;;;5052878;28;20492;-68
2023/06/21 10:39:33;;;;;;;7.80;7.00;;;27.40;55.40;;;;;;5052967;28;20400;-68
2023/06/21 10:42:00;;;;;;;7.60;6.90;;;27.40;56.00;;;;;;5052718;28;20417;-68
2023/06/21 10:44:28;;;;;;;6.90;6.30;;;27.40;55.50;;;;;;5052751;28;20406;-68
2023/06/21 10:46:55;;;;;;;7.90;7.10;;;27.40;55.40;;;;;;5047699;28;20434;-68
2023/06/21 10:49:21;;;;;;;8.03;6.57;;;27.40;55.30;;;;;;5044651;28;20414;-69
2023/06/21 10:51:49;;;;;;;24.33;21.40;;;27.40;55.50;;;;;;5050823;28;20960;-68
2023/06/21 10:54:16;;;;;;;110.53;75.57;;;27.40;55.40;;;;;;5050232;28;20708;-68
2023/06/21 10:56:42;;;;;;;78.13;53.57;;;27.40;55.40;;;;;;5051100;28;20429;-68
2023/06/21 10:59:10;;;;;;;61.70;48.33;;;27.40;55.40;;;;;;5052403;28;20401;-68
2023/06/21 11:01:36;;;;;;;150.43;99.73;;;27.40;55.40;;;;;;5052387;28;20262;-67
2023/06/21 11:04:04;;;;;;;166.03;111.10;;;27.40;55.40;;;;;;5052342;28;20505;-66
2023/06/21 11:06:33;;;;;;;154.90;100.40;;;27.40;55.30;;;;;;5052329;28;20293;-68
2023/06/21 11:09:08;;;;;;;133.70;90.77;;;27.40;55.40;;;;;;5052209;28;20464;-68
2023/06/21 11:11:36;;;;;;;137.40;91.20;;;27.40;55.40;;;;;;5052247;28;20432;-68
2023/06/21 11:14:03;;;;;;;118.90;80.77;;;27.40;55.90;;;;;;5052226;28;20418;-68
2023/06/21 11:16:35;;;;;;;95.03;65.67;;;27.50;55.30;;;;;;5052261;28;20862;-68
2023/06/21 11:19:07;;;;;;;77.30;52.60;;;27.40;55.50;;;;;;5052145;28;20409;-68
2023/06/21 11:21:45;;;;;;;58.47;39.07;;;27.40;55.30;;;;;;5052341;28;20417;-68
2023/06/21 11:24:13;;;;;;;53.40;40.00;;;27.40;55.40;;;;;;5052053;28;20418;-68
2023/06/21 11:26:58;;;;;;;36.53;27.90;;;27.40;55.40;;;;;;5050967;28;20445;-68
2023/06/21 11:29:36;;;;;;;35.03;25.17;;;27.50;55.40;;;;;;5052011;28;20440;-66
2023/06/21 11:32:14;;;;;;;31.03;23.30;;;27.40;55.30;;;;;;5052024;28;20824;-69
2023/06/21 11:35:12;;;;;;;34.67;24.33;;;27.40;55.50;;;;;;5050721;28;20461;-67
2023/06/21 11:37:40;;;;;;;24.67;19.80;;;27.40;55.50;;;;;;5047792;28;20425;-69
2023/06/21 11:40:24;;;;;;;23.50;16.50;;;27.50;55.50;;;;;;5050622;28;20434;-68
2023/06/21 11:42:52;;;;;;;17.27;12.63;;;27.40;55.50;;;;;;5051921;28;20394;-66
2023/06/21 11:45:27;;;;;;;15.30;13.70;;;27.40;55.30;;;;;;5051714;28;20437;-68
2023/06/21 11:48:02;;;;;;;17.83;14.47;;;27.40;55.50;;;;;;5051833;28;20910;-68
2023/06/21 11:50:33;;;;;;;16.63;12.97;;;27.40;55.50;;;;;;5051725;28;20429;-68
2023/06/21 11:53:20;;;;;;;14.00;12.20;;;27.50;55.60;;;;;;5051737;28;20424;-68
2023/06/21 11:55:47;;;;;;;12.63;11.13;;;27.50;55.50;;;;;;5051605;28;20461;-69
2023/06/21 11:58:14;;;;;;;11.60;10.33;;;27.40;55.30;;;;;;5050616;28;20416;-68
2023/06/21 12:00:39;;;;;;;9.77;8.77;;;27.50;55.50;;;;;;5051735;28;20406;-69
2023/06/21 12:03:06;;;;;;;10.40;9.13;;;27.40;55.30;;;;;;5051636;28;20406;-68
2023/06/21 12:05:47;;;;;;;10.03;8.87;;;27.50;55.50;;;;;;5050630;28;20252;-68
2023/06/21 12:08:13;;;;;;;12.03;8.93;;;27.50;55.50;;;;;;5054872;28;20474;-68
2023/06/21 12:10:39;;;;;;;10.23;9.00;;;27.50;55.50;;;;;;5055583;28;20827;-68
2023/06/21 12:13:06;;;;;;;9.27;7.97;;;27.50;55.50;;;;;;5055519;28;20687;-68
2023/06/21 12:15:32;;;;;;;9.10;8.13;;;27.50;55.40;;;;;;5055349;28;20553;-69
2023/06/21 12:17:58;;;;;;;9.57;7.83;;;27.50;55.40;;;;;;5055243;28;20484;-68
2023/06/21 12:20:24;;;;;;;8.70;7.10;;;27.50;55.40;;;;;;5054164;28;20194;-68
2023/06/21 12:22:49;;;;;;;8.20;7.50;;;27.50;55.30;;;;;;5055396;28;20922;-68
2023/06/21 12:25:15;;;;;;;9.10;8.30;;;27.50;55.40;;;;;;5055239;28;20566;-68
2023/06/21 12:27:55;;;;;;;8.30;7.50;;;27.50;55.30;;;;;;5055260;28;20171;-68
2023/06/21 12:30:21;;;;;;;8.20;7.40;;;27.50;55.30;;;;;;5055233;28;20183;-68
2023/06/21 12:32:49;;;;;;;7.70;7.10;;;27.50;55.40;;;;;;5055444;28;20413;-68
2023/06/21 12:35:17;;;;;;;8.40;7.60;;;27.50;55.30;;;;;;5055022;28;20210;-68
2023/06/21 12:37:45;;;;;;;9.73;7.57;;;27.50;55.40;;;;;;5055055;28;20416;-68
2023/06/21 12:40:15;;;;;;;8.60;7.80;;;27.50;55.40;;;;;;5055031;28;20412;-68
2023/06/21 12:42:44;;;;;;;9.00;8.10;;;27.50;55.30;;;;;;5055011;28;20493;-68
2023/06/21 12:45:12;;;;;;;7.40;6.80;;;27.50;55.30;;;;;;5054859;28;20449;-68
2023/06/21 12:47:40;;;;;;;8.50;7.70;;;27.50;55.50;;;;;;5054859;28;20416;-69